createdAt,value
2023-04-30T00:00:39.984Z,24.2
2023-04-30T00:01:41.679Z,24.3
2023-04-30T00:02:43.759Z,24.4
2023-04-30T00:03:46.139Z,24.3
2023-04-30T00:04:48.925Z,24.2
2023-04-30T00:05:51.135Z,24.1
2023-04-30T00:06:53.276Z,24.4
2023-04-30T00:07:55.398Z,24.4
2023-04-30T00:08:57.289Z,24.4
2023-04-30T00:09:59.160Z,24.3
2023-04-30T00:11:01.333Z,24.3
2023-04-30T00:12:03.575Z,24.2
2023-04-30T00:13:05.721Z,24.3
2023-04-30T00:14:07.609Z,24.3
2023-04-30T00:15:09.568Z,24.4
2023-04-30T00:16:11.695Z,24.5
2023-04-30T00:17:13.823Z,24.3
2023-04-30T00:18:15.940Z,24.4
2023-04-30T00:19:18.052Z,24.3
2023-04-30T00:20:19.957Z,24.3
2023-04-30T00:21:22.118Z,24.2
2023-04-30T00:22:24.972Z,24.2
2023-04-30T00:23:26.899Z,24.3
2023-04-30T00:24:29.004Z,24.4
2023-04-30T00:25:31.075Z,24.4
2023-04-30T00:26:33.452Z,24.4
2023-04-30T00:27:35.633Z,24.4
2023-04-30T00:28:41.464Z,24.4
2023-04-30T00:29:43.190Z,24.3
2023-04-30T00:30:45.083Z,24.3
2023-04-30T00:31:47.066Z,24.5
2023-04-30T00:32:49.411Z,24.5
2023-04-30T00:33:51.692Z,24.5
2023-04-30T00:34:53.770Z,24.5
2023-04-30T00:35:55.688Z,24.5
2023-04-30T00:36:57.824Z,24.4
2023-04-30T00:37:59.341Z,24.4
2023-04-30T00:39:01.256Z,24.4
2023-04-30T00:40:02.814Z,24.3
2023-04-30T00:41:04.695Z,24.2
2023-04-30T00:42:06.634Z,24.3
2023-04-30T00:43:09.207Z,24.4
2023-04-30T00:44:11.155Z,24.4
2023-04-30T00:45:12.918Z,24.4
2023-04-30T00:46:14.839Z,24.3
2023-04-30T00:47:16.927Z,24.5
2023-04-30T00:48:18.638Z,24.5
2023-04-30T00:49:20.630Z,24.4
2023-04-30T00:50:22.731Z,24.4
2023-04-30T00:51:24.828Z,24.3
2023-04-30T00:52:26.982Z,24.3
2023-04-30T00:53:29.080Z,24.5
2023-04-30T00:54:30.940Z,24.5
2023-04-30T00:55:33.024Z,24.5
2023-04-30T00:56:34.889Z,24.4
2023-04-30T00:57:36.981Z,24.5
2023-04-30T00:58:39.294Z,24.6
2023-04-30T00:59:40.798Z,24.6
2023-04-30T01:00:42.879Z,24.5
2023-04-30T01:01:44.978Z,24.5
2023-04-30T01:02:47.675Z,24.5
2023-04-30T01:03:50.098Z,24.5
2023-04-30T01:04:52.192Z,24.5
2023-04-30T01:05:54.315Z,24.4
2023-04-30T01:06:56.512Z,24.4
2023-04-30T01:07:58.608Z,24.5
2023-04-30T01:09:00.484Z,24.5
2023-04-30T01:10:02.162Z,24.6
2023-04-30T01:11:04.110Z,24.4
2023-04-30T01:12:06.183Z,24.5
2023-04-30T01:13:08.299Z,24.5
2023-04-30T01:14:10.514Z,24.4
2023-04-30T01:15:12.604Z,24.5
2023-04-30T01:16:14.542Z,24.6
2023-04-30T01:17:16.826Z,24.5
2023-04-30T01:18:18.776Z,24.4
2023-04-30T01:19:21.533Z,24.7
2023-04-30T01:20:23.652Z,24.7
2023-04-30T01:21:25.723Z,24.8
2023-04-30T01:22:27.814Z,24.5
2023-04-30T01:23:29.545Z,24.6
2023-04-30T01:24:31.469Z,24.6
2023-04-30T01:25:33.560Z,24.8
2023-04-30T01:26:35.639Z,24.7
2023-04-30T01:27:37.354Z,24.7
2023-04-30T01:28:39.457Z,24.7
2023-04-30T01:29:41.625Z,24.6
2023-04-30T01:30:43.572Z,24.6
2023-04-30T01:31:45.507Z,24.6
2023-04-30T01:32:47.933Z,24.5
2023-04-30T01:33:49.778Z,24.7
2023-04-30T01:34:51.471Z,24.7
2023-04-30T01:35:53.528Z,24.6
2023-04-30T01:36:55.664Z,24.7
2023-04-30T01:37:57.541Z,24.6
2023-04-30T01:38:59.277Z,24.7
2023-04-30T01:40:01.181Z,24.7
2023-04-30T01:41:02.908Z,24.7
2023-04-30T01:42:04.991Z,24.7
2023-04-30T01:43:06.927Z,24.8
2023-04-30T01:44:09.133Z,24.6
2023-04-30T01:45:11.484Z,24.7
2023-04-30T01:46:13.636Z,24.7
2023-04-30T01:47:15.897Z,24.7
2023-04-30T01:48:17.590Z,24.7
2023-04-30T01:49:19.284Z,24.8
2023-04-30T01:50:21.391Z,24.8
2023-04-30T01:51:23.297Z,24.6
2023-04-30T01:52:25.202Z,24.6
2023-04-30T01:53:27.532Z,24.7
2023-04-30T01:54:29.264Z,24.6
2023-04-30T01:55:31.131Z,24.7
2023-04-30T01:56:32.814Z,24.8
2023-04-30T01:57:34.978Z,24.8
2023-04-30T01:58:37.187Z,24.7
2023-04-30T01:59:39.245Z,24.7
2023-04-30T02:00:41.479Z,24.7
2023-04-30T02:01:43.498Z,24.8
2023-04-30T02:02:45.679Z,24.6
2023-04-30T02:03:48.467Z,24.6
2023-04-30T02:04:51.220Z,24.8
2023-04-30T02:05:53.294Z,24.9
2023-04-30T02:06:55.438Z,24.9
2023-04-30T02:07:57.539Z,24.8
2023-04-30T02:08:59.441Z,24.5
2023-04-30T02:10:01.381Z,24.8
2023-04-30T02:11:03.203Z,24.8
2023-04-30T02:12:05.205Z,24.9
2023-04-30T02:13:07.305Z,24.8
2023-04-30T02:14:09.191Z,24.9
2023-04-30T02:15:10.882Z,24.7
2023-04-30T02:16:13.130Z,24.8
2023-04-30T02:17:15.507Z,24.8
2023-04-30T02:18:17.410Z,24.7
2023-04-30T02:19:19.607Z,24.9
2023-04-30T02:20:21.652Z,24.7
2023-04-30T02:21:23.775Z,24.8
2023-04-30T02:22:25.477Z,24.7
2023-04-30T02:23:27.605Z,24.8
2023-04-30T02:24:29.486Z,24.7
2023-04-30T02:25:31.591Z,24.7
2023-04-30T02:26:33.698Z,24.7
2023-04-30T02:27:35.394Z,24.8
2023-04-30T02:28:37.281Z,24.7
2023-04-30T02:29:39.015Z,24.6
2023-04-30T02:30:40.894Z,24.8
2023-04-30T02:31:42.928Z,24.7
2023-04-30T02:32:45.186Z,24.8
2023-04-30T02:33:47.297Z,24.8
2023-04-30T02:34:48.987Z,24.7
2023-04-30T02:35:50.882Z,24.8
2023-04-30T02:36:52.962Z,24.7
2023-04-30T02:37:55.070Z,24.8
2023-04-30T02:38:56.978Z,24.8
2023-04-30T02:39:58.907Z,24.8
2023-04-30T02:41:00.840Z,24.6
2023-04-30T02:42:02.923Z,24.7
2023-04-30T02:43:05.002Z,24.7
2023-04-30T02:44:06.963Z,24.6
2023-04-30T02:45:09.042Z,24.8
2023-04-30T02:46:11.180Z,24.7
2023-04-30T02:47:13.404Z,24.7
2023-04-30T02:48:15.323Z,24.7
2023-04-30T02:49:17.220Z,24.7
2023-04-30T02:50:19.288Z,24.6
2023-04-30T02:51:20.803Z,24.7
2023-04-30T02:52:22.926Z,24.8
2023-04-30T02:53:24.882Z,24.7
2023-04-30T02:54:26.756Z,24.7
2023-04-30T02:55:28.862Z,24.6
2023-04-30T02:56:30.881Z,24.7
2023-04-30T02:57:32.968Z,24.8
2023-04-30T02:58:34.475Z,24.8
2023-04-30T02:59:36.364Z,24.7
2023-04-30T03:00:38.449Z,24.7
2023-04-30T03:01:40.245Z,24.8
2023-04-30T03:02:43.208Z,24.7
2023-04-30T03:03:45.686Z,24.8
2023-04-30T03:04:48.150Z,24.7
2023-04-30T03:05:50.243Z,24.7
2023-04-30T03:06:51.907Z,24.9
2023-04-30T03:07:53.429Z,24.8
2023-04-30T03:08:55.301Z,24.7
2023-04-30T03:09:57.261Z,24.8
2023-04-30T03:10:59.358Z,24.7
2023-04-30T03:12:01.554Z,24.7
2023-04-30T03:13:03.637Z,24.5
2023-04-30T03:14:05.724Z,24.7
2023-04-30T03:15:07.428Z,24.7
2023-04-30T03:16:09.368Z,24.7
2023-04-30T03:17:11.564Z,24.7
2023-04-30T03:18:13.856Z,24.5
2023-04-30T03:19:16.033Z,24.7
2023-04-30T03:20:17.923Z,24.5
2023-04-30T03:21:19.814Z,24.7
2023-04-30T03:22:22.016Z,24.7
2023-04-30T03:23:24.172Z,24.6
2023-04-30T03:24:26.652Z,24.5
2023-04-30T03:25:28.370Z,24.7
2023-04-30T03:26:30.044Z,24.8
2023-04-30T03:27:31.778Z,24.8
2023-04-30T03:28:33.856Z,24.7
2023-04-30T03:29:35.921Z,24.4
2023-04-30T03:30:37.665Z,24.5
2023-04-30T03:31:39.842Z,24.4
2023-04-30T03:32:42.219Z,24.7
2023-04-30T03:33:44.701Z,24.6
2023-04-30T03:34:47.047Z,24.4
2023-04-30T03:35:48.578Z,24.5
2023-04-30T03:36:50.268Z,24.5
2023-04-30T03:37:52.374Z,24.8
2023-04-30T03:38:54.298Z,24.7
2023-04-30T03:39:56.193Z,24.7
2023-04-30T03:40:58.704Z,24.4
2023-04-30T03:42:00.582Z,24.4
2023-04-30T03:43:02.497Z,24.7
2023-04-30T03:44:04.662Z,24.4
2023-04-30T03:45:06.373Z,24.4
2023-04-30T03:46:08.269Z,24.6
2023-04-30T03:47:10.418Z,24.6
2023-04-30T03:48:12.492Z,24.7
2023-04-30T03:49:14.944Z,24.6
2023-04-30T03:50:17.111Z,24.6
2023-04-30T03:51:18.997Z,24.1
2023-04-30T03:52:20.946Z,24.5
2023-04-30T03:53:22.867Z,24.7
2023-04-30T03:54:24.958Z,24.6
2023-04-30T03:55:27.030Z,24.4
2023-04-30T03:56:29.097Z,24.5
2023-04-30T03:57:31.064Z,24.8
2023-04-30T03:58:32.782Z,24.5
2023-04-30T03:59:34.688Z,24.7
2023-04-30T04:00:36.599Z,25
2023-04-30T04:01:38.732Z,24.3
2023-04-30T04:02:41.215Z,24.3
2023-04-30T04:03:43.078Z,24.5
2023-04-30T04:04:45.541Z,24.5
2023-04-30T04:05:47.633Z,24.8
2023-04-30T04:06:49.587Z,24.5
2023-04-30T04:07:51.537Z,24.6
2023-04-30T04:08:53.624Z,24.5
2023-04-30T04:09:55.900Z,24.5
2023-04-30T04:10:58.361Z,24.4
2023-04-30T04:12:00.458Z,24.5
2023-04-30T04:13:02.623Z,24.4
2023-04-30T04:14:04.544Z,24.5
2023-04-30T04:15:06.612Z,24.6
2023-04-30T04:16:08.564Z,24.6
2023-04-30T04:17:10.955Z,24.7
2023-04-30T04:18:13.042Z,24.2
2023-04-30T04:19:14.762Z,24.5
2023-04-30T04:20:16.962Z,24.7
2023-04-30T04:21:18.671Z,24.4
2023-04-30T04:22:20.348Z,24.6
2023-04-30T04:23:22.450Z,24.6
2023-04-30T04:24:24.341Z,24.7
2023-04-30T04:25:26.430Z,24.6
2023-04-30T04:26:28.436Z,24.7
2023-04-30T04:27:30.621Z,24.4
2023-04-30T04:28:32.733Z,24.6
2023-04-30T04:29:34.688Z,24.6
2023-04-30T04:30:36.641Z,24.3
2023-04-30T04:31:38.673Z,24.3
2023-04-30T04:32:40.892Z,24.4
2023-04-30T04:33:43.161Z,24.7
2023-04-30T04:34:45.050Z,24.7
2023-04-30T04:35:47.264Z,24.6
2023-04-30T04:36:49.189Z,24.7
2023-04-30T04:37:50.893Z,24.5
2023-04-30T04:38:52.980Z,24.3
2023-04-30T04:39:55.368Z,23.9
2023-04-30T04:40:58.050Z,24.6
2023-04-30T04:41:59.946Z,24.4
2023-04-30T04:43:02.039Z,24.3
2023-04-30T04:44:04.165Z,24.2
2023-04-30T04:45:06.279Z,24.3
2023-04-30T04:46:08.415Z,24.5
2023-04-30T04:47:16.026Z,24.4
2023-04-30T04:48:17.904Z,24.3
2023-04-30T04:49:19.392Z,24.3
2023-04-30T04:50:21.473Z,24.2
2023-04-30T04:51:23.714Z,24.2
2023-04-30T04:52:25.860Z,24.3
2023-04-30T04:53:28.002Z,24.4
2023-04-30T04:54:30.104Z,24.1
2023-04-30T04:55:31.997Z,24.2
2023-04-30T04:56:34.129Z,24.5
2023-04-30T04:57:36.028Z,24.1
2023-04-30T04:58:37.925Z,24.3
2023-04-30T04:59:39.824Z,24.2
2023-04-30T05:00:41.727Z,24.2
2023-04-30T05:01:43.652Z,24.3
2023-04-30T05:02:45.891Z,24.1
2023-04-30T05:03:48.445Z,24.2
2023-04-30T05:04:51.305Z,24.2
2023-04-30T05:05:53.400Z,24.3
2023-04-30T05:06:55.946Z,24
2023-04-30T05:07:57.842Z,24.2
2023-04-30T05:08:59.947Z,24.2
2023-04-30T05:10:02.161Z,24.2
2023-04-30T05:11:03.858Z,24.2
2023-04-30T05:12:05.959Z,24.1
2023-04-30T05:13:08.063Z,24
2023-04-30T05:14:10.163Z,24.2
2023-04-30T05:15:12.261Z,24.3
2023-04-30T05:16:14.450Z,24.2
2023-04-30T05:17:16.786Z,24.1
2023-04-30T05:18:18.871Z,24.3
2023-04-30T05:19:20.744Z,24.2
2023-04-30T05:20:22.865Z,24.1
2023-04-30T05:21:24.832Z,24.3
2023-04-30T05:22:27.015Z,24.2
2023-04-30T05:23:29.094Z,24.1
2023-04-30T05:24:31.220Z,24.1
2023-04-30T05:25:33.329Z,24.1
2023-04-30T05:26:35.229Z,24.5
2023-04-30T05:27:36.940Z,24.2
2023-04-30T05:28:39.019Z,24.1
2023-04-30T05:29:40.944Z,24.2
2023-04-30T05:30:42.841Z,24.2
2023-04-30T05:31:44.778Z,24.2
2023-04-30T05:32:47.214Z,24.2
2023-04-30T05:33:49.357Z,24.3
2023-04-30T05:34:51.283Z,24.3
2023-04-30T05:35:53.391Z,24.2
2023-04-30T05:36:55.534Z,24.2
2023-04-30T05:37:57.545Z,24.1
2023-04-30T05:38:59.478Z,24.2
2023-04-30T05:40:01.255Z,24.2
2023-04-30T05:41:03.131Z,24.4
2023-04-30T05:42:04.850Z,24.2
2023-04-30T05:43:06.770Z,24.1
2023-04-30T05:44:08.883Z,24.1
2023-04-30T05:45:10.818Z,24.2
2023-04-30T05:46:12.612Z,24.2
2023-04-30T05:47:14.765Z,24.2
2023-04-30T05:48:16.756Z,24.2
2023-04-30T05:49:19.196Z,24.2
2023-04-30T05:50:21.086Z,24.1
2023-04-30T05:51:23.026Z,24.2
2023-04-30T05:52:25.126Z,24
2023-04-30T05:53:27.350Z,24.3
2023-04-30T05:54:29.401Z,24.3
2023-04-30T05:55:31.581Z,24.1
2023-04-30T05:56:33.719Z,24.2
2023-04-30T05:57:35.830Z,24.1
2023-04-30T05:58:37.722Z,24.3
2023-04-30T05:59:39.686Z,24.2
2023-04-30T06:00:41.784Z,24.2
2023-04-30T06:01:43.891Z,24.2
2023-04-30T06:02:46.225Z,24.3
2023-04-30T06:03:48.471Z,24.1
2023-04-30T06:04:50.581Z,24.3
2023-04-30T06:05:52.931Z,24.2
2023-04-30T06:06:55.222Z,24.2
2023-04-30T06:07:57.316Z,24.1
2023-04-30T06:08:59.741Z,24.3
2023-04-30T06:10:01.653Z,24.2
2023-04-30T06:11:03.600Z,24
2023-04-30T06:12:05.511Z,24.1
2023-04-30T06:13:07.639Z,24.2
2023-04-30T06:14:09.776Z,24.1
2023-04-30T06:15:11.903Z,24.3
2023-04-30T06:16:13.840Z,24.2
2023-04-30T06:17:15.930Z,24.3
2023-04-30T06:18:17.644Z,24.1
2023-04-30T06:19:19.355Z,24.1
2023-04-30T06:20:21.486Z,24.1
2023-04-30T06:21:23.368Z,24.2
2023-04-30T06:22:25.428Z,24.2
2023-04-30T06:23:27.308Z,24.2
2023-04-30T06:24:29.508Z,24.2
2023-04-30T06:25:31.572Z,24.1
2023-04-30T06:26:33.492Z,24.1
2023-04-30T06:27:36.169Z,24
2023-04-30T06:28:38.255Z,24.2
2023-04-30T06:29:40.144Z,24.1
2023-04-30T06:30:42.163Z,24.1
2023-04-30T06:31:44.276Z,24.2
2023-04-30T06:32:46.941Z,24
2023-04-30T06:33:49.058Z,24.2
2023-04-30T06:34:51.162Z,24.1
2023-04-30T06:35:52.866Z,24.3
2023-04-30T06:36:54.745Z,24.1
2023-04-30T06:37:56.830Z,24.3
2023-04-30T06:38:58.541Z,24.2
2023-04-30T06:40:00.937Z,24
2023-04-30T06:41:02.731Z,24.1
2023-04-30T06:42:04.786Z,24.2
2023-04-30T06:43:06.882Z,24.1
2023-04-30T06:44:08.981Z,24.3
2023-04-30T06:45:11.098Z,24.2
2023-04-30T06:46:13.226Z,24.2
2023-04-30T06:47:15.631Z,24.2
2023-04-30T06:48:17.724Z,24.1
2023-04-30T06:49:19.434Z,24.1
2023-04-30T06:50:21.565Z,24
2023-04-30T06:51:23.680Z,24.2
2023-04-30T06:52:25.774Z,24.2
2023-04-30T06:53:27.867Z,24.1
2023-04-30T06:54:29.970Z,24
2023-04-30T06:55:32.212Z,24.1
2023-04-30T06:56:33.905Z,24.2
2023-04-30T06:57:36.006Z,24.1
2023-04-30T06:58:38.238Z,24.2
2023-04-30T06:59:40.385Z,24.2
2023-04-30T07:00:42.487Z,24.1
2023-04-30T07:01:44.387Z,24.2
2023-04-30T07:02:46.515Z,24.3
2023-04-30T07:03:48.978Z,24.2
2023-04-30T07:04:51.942Z,24
2023-04-30T07:05:54.059Z,24.1
2023-04-30T07:06:56.353Z,24.3
2023-04-30T07:07:58.427Z,24.1
2023-04-30T07:09:00.527Z,24.2
2023-04-30T07:10:02.449Z,24.1
2023-04-30T07:11:04.675Z,24.1
2023-04-30T07:12:06.557Z,24.1
2023-04-30T07:13:08.299Z,24.1
2023-04-30T07:14:10.432Z,24.1
2023-04-30T07:15:12.145Z,24
2023-04-30T07:16:14.270Z,24.1
2023-04-30T07:17:16.406Z,24.2
2023-04-30T07:18:18.725Z,24.3
2023-04-30T07:19:20.639Z,24.2
2023-04-30T07:20:22.540Z,24.1
2023-04-30T07:21:24.635Z,24.2
2023-04-30T07:22:26.737Z,24.1
2023-04-30T07:23:30.516Z,24.3
2023-04-30T07:24:32.681Z,24.2
2023-04-30T07:25:34.654Z,24.2
2023-04-30T07:26:36.938Z,24.2
2023-04-30T07:27:39.066Z,24.4
2023-04-30T07:28:41.155Z,24.3
2023-04-30T07:29:42.854Z,24.3
2023-04-30T07:30:44.772Z,24.2
2023-04-30T07:31:46.540Z,24.2
2023-04-30T07:32:48.346Z,24.2
2023-04-30T07:33:50.762Z,24.2
2023-04-30T07:34:52.835Z,24.3
2023-04-30T07:35:54.581Z,24.3
2023-04-30T07:36:56.687Z,24.2
2023-04-30T07:37:58.808Z,24.2
2023-04-30T07:39:00.961Z,24.2
2023-04-30T07:40:03.099Z,24.2
2023-04-30T07:41:05.035Z,24.2
2023-04-30T07:42:07.293Z,24.4
2023-04-30T07:43:09.413Z,24.1
2023-04-30T07:44:11.516Z,24.2
2023-04-30T07:45:13.434Z,24.2
2023-04-30T07:46:15.368Z,24.2
2023-04-30T07:47:17.758Z,24.2
2023-04-30T07:48:19.681Z,24.2
2023-04-30T07:49:21.766Z,24.1
2023-04-30T07:50:23.688Z,24.2
2023-04-30T07:51:25.639Z,24.2
2023-04-30T07:52:27.544Z,24.3
2023-04-30T07:53:29.437Z,24.1
2023-04-30T07:54:31.338Z,24.1
2023-04-30T07:55:33.012Z,24.2
2023-04-30T07:56:34.895Z,24.2
2023-04-30T07:57:37.086Z,24.4
2023-04-30T07:58:39.184Z,24.3
2023-04-30T07:59:41.364Z,24.2
2023-04-30T08:00:43.443Z,24.2
2023-04-30T08:01:45.615Z,24.3
2023-04-30T08:02:48.473Z,24.2
2023-04-30T08:03:52.109Z,24.3
2023-04-30T08:04:54.690Z,24.2
2023-04-30T08:05:56.793Z,24.1
2023-04-30T08:06:58.921Z,24.1
2023-04-30T08:08:01.006Z,24.2
2023-04-30T08:09:02.715Z,24.2
2023-04-30T08:10:04.772Z,24.2
2023-04-30T08:11:06.496Z,24.4
2023-04-30T08:12:08.612Z,24.2
2023-04-30T08:13:10.591Z,24.3
2023-04-30T08:14:12.497Z,24.1
2023-04-30T08:15:14.424Z,24.3
2023-04-30T08:16:16.443Z,24.1
2023-04-30T08:17:18.756Z,24.2
2023-04-30T08:18:20.893Z,24.3
2023-04-30T08:19:22.640Z,24.1
2023-04-30T08:20:24.592Z,24.3
2023-04-30T08:21:26.712Z,24
2023-04-30T08:22:28.415Z,24.1
2023-04-30T08:23:30.307Z,24.1
2023-04-30T08:24:32.394Z,24.4
2023-04-30T08:25:34.513Z,24.1
2023-04-30T08:26:36.608Z,24.2
2023-04-30T08:27:38.638Z,24.2
2023-04-30T08:28:40.865Z,24.1
2023-04-30T08:29:42.938Z,24
2023-04-30T08:30:44.648Z,24.1
2023-04-30T08:31:46.789Z,24.3
2023-04-30T08:32:49.215Z,24.2
2023-04-30T08:33:51.680Z,24.2
2023-04-30T08:34:54.129Z,24.3
2023-04-30T08:35:57.648Z,24
2023-04-30T08:36:59.509Z,24.2
2023-04-30T08:38:01.636Z,24.2
2023-04-30T08:39:03.764Z,24.1
2023-04-30T08:40:05.479Z,24.1
2023-04-30T08:41:07.369Z,24.1
2023-04-30T08:42:09.254Z,24.1
2023-04-30T08:43:11.353Z,24.2
2023-04-30T08:44:13.900Z,24.2
2023-04-30T08:45:15.984Z,24.2
2023-04-30T08:46:17.974Z,24.1
2023-04-30T08:47:20.413Z,24.1
2023-04-30T08:48:22.515Z,24.2
2023-04-30T08:49:24.930Z,24
2023-04-30T08:50:27.106Z,24.1
2023-04-30T08:51:29.087Z,24.1
2023-04-30T08:52:31.171Z,24
2023-04-30T08:53:33.281Z,24.2
2023-04-30T08:54:35.410Z,24.1
2023-04-30T08:55:37.086Z,24.1
2023-04-30T08:56:39.197Z,24.2
2023-04-30T08:57:41.353Z,24.1
2023-04-30T08:58:43.513Z,24
2023-04-30T08:59:45.718Z,24
2023-04-30T09:00:47.444Z,24.2
2023-04-30T09:01:51.312Z,24.2
2023-04-30T09:02:54.460Z,24.2
2023-04-30T09:03:57.220Z,24
2023-04-30T09:05:00.217Z,24.1
2023-04-30T09:06:02.377Z,24.2
2023-04-30T09:07:04.872Z,24.1
2023-04-30T09:08:10.701Z,24.2
2023-04-30T09:09:12.835Z,24.1
2023-04-30T09:10:14.740Z,24.1
2023-04-30T09:11:16.704Z,24.2
2023-04-30T09:12:19.248Z,24.1
2023-04-30T09:13:21.842Z,24.1
2023-04-30T09:14:23.835Z,24.1
2023-04-30T09:15:25.892Z,24.1
2023-04-30T09:16:27.973Z,24
2023-04-30T09:17:30.454Z,24.1
2023-04-30T09:18:32.437Z,24
2023-04-30T09:19:34.326Z,24
2023-04-30T09:20:36.452Z,24.1
2023-04-30T09:21:38.340Z,24
2023-04-30T09:22:40.446Z,24.1
2023-04-30T09:23:42.386Z,24.1
2023-04-30T09:24:44.276Z,24
2023-04-30T09:25:46.181Z,24.3
2023-04-30T09:26:48.303Z,24.2
2023-04-30T09:27:50.401Z,24
2023-04-30T09:28:52.269Z,24
2023-04-30T09:29:54.743Z,24.1
2023-04-30T09:30:58.290Z,24.1
2023-04-30T09:32:00.404Z,24.1
2023-04-30T09:33:03.012Z,24.1
2023-04-30T09:34:05.390Z,24.2
2023-04-30T09:35:07.153Z,24.1
2023-04-30T09:36:09.223Z,24.2
2023-04-30T09:37:10.934Z,24.1
2023-04-30T09:38:12.799Z,24.2
2023-04-30T09:39:16.180Z,24
2023-04-30T09:40:18.466Z,24.1
2023-04-30T09:41:20.187Z,24
2023-04-30T09:42:22.329Z,24.2
2023-04-30T09:43:24.425Z,24.1
2023-04-30T09:44:26.162Z,24.2
2023-04-30T09:45:28.237Z,24.1
2023-04-30T09:46:33.692Z,24.1
2023-04-30T09:47:36.158Z,24
2023-04-30T09:48:38.488Z,24.4
2023-04-30T09:49:40.996Z,24.1
2023-04-30T09:50:43.494Z,24.2
2023-04-30T09:51:45.549Z,24
2023-04-30T09:52:47.415Z,24
2023-04-30T09:53:49.332Z,24.2
2023-04-30T09:54:51.531Z,24.2
2023-04-30T09:55:53.515Z,24
2023-04-30T09:57:01.033Z,24.1
2023-04-30T09:58:03.466Z,24.1
2023-04-30T09:59:05.372Z,24.1
2023-04-30T10:00:07.283Z,24
2023-04-30T10:01:09.430Z,24
2023-04-30T10:02:11.870Z,24
2023-04-30T10:03:14.035Z,24.1
2023-04-30T10:04:16.391Z,24.1
2023-04-30T10:05:18.488Z,24
2023-04-30T10:06:20.597Z,24.3
2023-04-30T10:07:23.246Z,24
2023-04-30T10:08:25.345Z,24.1
2023-04-30T10:09:27.083Z,24
2023-04-30T10:10:29.208Z,24.1
2023-04-30T10:11:31.330Z,24
2023-04-30T10:12:33.440Z,24.3
2023-04-30T10:13:35.570Z,24.1
2023-04-30T10:14:37.704Z,24.2
2023-04-30T10:15:39.620Z,24.2
2023-04-30T10:16:41.948Z,24.2
2023-04-30T10:17:44.554Z,24.3
2023-04-30T10:18:46.889Z,24.2
2023-04-30T10:19:48.979Z,24.1
2023-04-30T10:20:51.107Z,24.1
2023-04-30T10:21:53.029Z,24.1
2023-04-30T10:22:55.119Z,24.1
2023-04-30T10:23:57.218Z,24.1
2023-04-30T10:24:59.104Z,24.2
2023-04-30T10:26:01.205Z,24.2
2023-04-30T10:27:03.306Z,24.2
2023-04-30T10:28:05.215Z,24.1
2023-04-30T10:29:07.145Z,24.1
2023-04-30T10:30:08.831Z,24.1
2023-04-30T10:31:10.937Z,24.2
2023-04-30T10:32:12.999Z,24.2
2023-04-30T10:33:16.932Z,24
2023-04-30T10:34:19.146Z,24
2023-04-30T10:35:20.854Z,24.1
2023-04-30T10:36:23.000Z,24.1
2023-04-30T10:37:24.944Z,24.1
2023-04-30T10:38:26.646Z,24.2
2023-04-30T10:39:28.737Z,24
2023-04-30T10:40:30.891Z,24.1
2023-04-30T10:41:32.788Z,24.1
2023-04-30T10:42:34.914Z,23.9
2023-04-30T10:43:36.842Z,23.9
2023-04-30T10:44:38.972Z,24.1
2023-04-30T10:45:41.141Z,24.1
2023-04-30T10:46:43.456Z,24
2023-04-30T10:47:45.415Z,23.9
2023-04-30T10:48:48.067Z,24.2
2023-04-30T10:49:50.186Z,24.1
2023-04-30T10:50:52.169Z,24.2
2023-04-30T10:51:54.036Z,24.1
2023-04-30T10:52:56.140Z,24.3
2023-04-30T10:53:58.205Z,24.2
2023-04-30T10:55:00.092Z,24.2
2023-04-30T10:56:01.772Z,24.2
2023-04-30T10:57:03.892Z,24
2023-04-30T10:58:06.004Z,24.2
2023-04-30T10:59:08.142Z,24.4
2023-04-30T11:00:10.232Z,24.1
2023-04-30T11:01:12.348Z,24.2
2023-04-30T11:02:14.925Z,24.2
2023-04-30T11:03:17.030Z,24.2
2023-04-30T11:04:19.612Z,24.3
2023-04-30T11:05:21.865Z,24.2
2023-04-30T11:06:24.027Z,24.1
2023-04-30T11:07:26.119Z,24.1
2023-04-30T11:08:28.185Z,24.2
2023-04-30T11:09:30.263Z,24.2
2023-04-30T11:10:32.375Z,24.1
2023-04-30T11:11:34.448Z,24.3
2023-04-30T11:12:36.557Z,24.1
2023-04-30T11:13:38.656Z,24.1
2023-04-30T11:14:40.761Z,24.3
2023-04-30T11:15:42.930Z,24
2023-04-30T11:16:45.053Z,24.3
2023-04-30T11:17:46.957Z,24
2023-04-30T11:18:49.095Z,24.2
2023-04-30T11:19:51.481Z,24.1
2023-04-30T11:20:54.809Z,24.3
2023-04-30T11:21:56.732Z,24.4
2023-04-30T11:22:58.429Z,23.9
2023-04-30T11:24:00.325Z,24
2023-04-30T11:25:02.432Z,24.1
2023-04-30T11:26:04.569Z,24
2023-04-30T11:27:06.745Z,24.1
2023-04-30T11:28:08.724Z,24.2
2023-04-30T11:29:10.687Z,24.1
2023-04-30T11:30:12.899Z,24.2
2023-04-30T11:31:15.415Z,24.2
2023-04-30T11:32:18.014Z,24.2
2023-04-30T11:33:20.558Z,24.2
2023-04-30T11:34:22.675Z,24.1
2023-04-30T11:35:24.866Z,24.1
2023-04-30T11:36:26.954Z,24.2
2023-04-30T11:37:29.226Z,24.1
2023-04-30T11:38:31.323Z,24.1
2023-04-30T11:39:33.228Z,24.1
2023-04-30T11:40:35.326Z,24.1
2023-04-30T11:41:37.428Z,24.1
2023-04-30T11:42:39.543Z,24.1
2023-04-30T11:43:46.538Z,24.1
2023-04-30T11:44:48.581Z,24.1
2023-04-30T11:45:50.467Z,24
2023-04-30T11:46:52.574Z,24.2
2023-04-30T11:47:54.977Z,24.1
2023-04-30T11:48:57.111Z,24.2
2023-04-30T11:49:58.991Z,24.1
2023-04-30T11:51:01.009Z,24.1
2023-04-30T11:52:02.922Z,24
2023-04-30T11:53:04.865Z,24.2
2023-04-30T11:54:07.020Z,24.2
2023-04-30T11:55:08.907Z,24.2
2023-04-30T11:56:11.007Z,24.3
2023-04-30T11:57:13.252Z,24
2023-04-30T11:58:15.254Z,24.1
2023-04-30T11:59:17.379Z,24
2023-04-30T12:00:19.557Z,24.2
2023-04-30T12:01:21.708Z,24.2
2023-04-30T12:02:23.870Z,24
2023-04-30T12:03:26.822Z,24
2023-04-30T12:04:29.099Z,24.2
2023-04-30T12:05:31.977Z,24
2023-04-30T12:06:34.344Z,24.1
2023-04-30T12:07:36.504Z,24.1
2023-04-30T12:08:38.600Z,24
2023-04-30T12:09:40.501Z,24.2
2023-04-30T12:10:42.591Z,24
2023-04-30T12:11:44.702Z,24.2
2023-04-30T12:12:46.818Z,24.2
2023-04-30T12:13:51.744Z,24.1
2023-04-30T12:14:53.624Z,24.1
2023-04-30T12:15:55.758Z,24
2023-04-30T12:16:57.746Z,24
2023-04-30T12:18:00.373Z,24
2023-04-30T12:19:02.823Z,24
2023-04-30T12:20:04.773Z,24.2
2023-04-30T12:21:06.763Z,24
2023-04-30T12:22:08.981Z,24.1
2023-04-30T12:23:11.066Z,24.1
2023-04-30T12:24:13.032Z,24.1
2023-04-30T12:25:14.967Z,24
2023-04-30T12:26:16.856Z,24.1
2023-04-30T12:27:19.018Z,24
2023-04-30T12:28:20.930Z,24.1
2023-04-30T12:29:23.034Z,24
2023-04-30T12:30:25.129Z,24.2
2023-04-30T12:31:27.600Z,24.2
2023-04-30T12:32:30.196Z,24.2
2023-04-30T12:33:32.911Z,24.2
2023-04-30T12:34:34.813Z,24.2
2023-04-30T12:35:36.697Z,24.3
2023-04-30T12:36:38.784Z,24
2023-04-30T12:37:40.989Z,24.2
2023-04-30T12:38:43.218Z,24.1
2023-04-30T12:39:45.159Z,24.2
2023-04-30T12:40:47.048Z,24.2
2023-04-30T12:41:48.965Z,24.2
2023-04-30T12:42:51.171Z,24.1
2023-04-30T12:43:53.314Z,24.2
2023-04-30T12:44:55.380Z,24
2023-04-30T12:45:57.519Z,24.2
2023-04-30T12:46:59.918Z,24.2
2023-04-30T12:48:02.249Z,24.2
2023-04-30T12:49:04.577Z,24.1
2023-04-30T12:50:06.500Z,24.1
2023-04-30T12:51:08.304Z,24.3
2023-04-30T12:52:10.393Z,24.1
2023-04-30T12:53:12.553Z,24.1
2023-04-30T12:54:14.444Z,24.1
2023-04-30T12:55:16.518Z,24.2
2023-04-30T12:56:18.653Z,24.2
2023-04-30T12:57:20.721Z,24.1
2023-04-30T12:58:22.837Z,24.1
2023-04-30T12:59:24.911Z,24.1
2023-04-30T13:00:26.994Z,24.1
2023-04-30T13:01:29.129Z,24.1
2023-04-30T13:02:31.572Z,24.1
2023-04-30T13:03:34.523Z,24.1
2023-04-30T13:04:37.255Z,24.3
2023-04-30T13:05:39.187Z,24.1
2023-04-30T13:06:41.373Z,24.3
2023-04-30T13:07:44.172Z,24.1
2023-04-30T13:08:57.647Z,24.1
2023-04-30T13:09:51.432Z,24.2
2023-04-30T13:10:54.436Z,24.2
2023-04-30T13:11:56.316Z,24.4
2023-04-30T13:12:58.408Z,24.2
2023-04-30T13:14:00.310Z,24.3
2023-04-30T13:15:02.450Z,24.3
2023-04-30T13:16:04.619Z,24.3
2023-04-30T13:17:07.067Z,24.3
2023-04-30T13:18:09.398Z,24.1
2023-04-30T13:19:11.635Z,24.3
2023-04-30T13:20:13.718Z,24.2
2023-04-30T13:21:15.812Z,24.2
2023-04-30T13:22:17.907Z,24.1
2023-04-30T13:23:19.783Z,24.3
2023-04-30T13:24:22.046Z,24.2
2023-04-30T13:25:24.285Z,24.4
2023-04-30T13:26:26.358Z,24.3
2023-04-30T13:27:28.447Z,24.1
2023-04-30T13:28:30.144Z,24.2
2023-04-30T13:29:32.263Z,24.2
2023-04-30T13:30:34.171Z,24.3
2023-04-30T13:31:36.369Z,24.1
2023-04-30T13:32:38.909Z,24.2
2023-04-30T13:33:41.427Z,24.2
2023-04-30T13:34:43.377Z,24.2
2023-04-30T13:35:45.462Z,24.3
2023-04-30T13:36:47.149Z,24.1
2023-04-30T13:37:49.228Z,24.2
2023-04-30T13:38:50.729Z,24.2
2023-04-30T13:39:53.203Z,24.1
2023-04-30T13:40:56.593Z,24.2
2023-04-30T13:41:58.550Z,24.2
2023-04-30T13:43:00.490Z,24.3
2023-04-30T13:44:02.574Z,24.2
2023-04-30T13:45:04.524Z,24.2
2023-04-30T13:46:06.714Z,24.1
2023-04-30T13:47:08.917Z,24.2
2023-04-30T13:48:11.483Z,24.4
2023-04-30T13:49:13.595Z,24.1
2023-04-30T13:50:15.707Z,24.1
2023-04-30T13:51:17.884Z,24.2
2023-04-30T13:52:19.803Z,24.2